Time;durP1;ratioP1;P1;durP2;ratioP2;P2;SDS_P1;SDS_P2;PMS_P1;PMS_P2;Temp;Humidity;BMP_temperature;BMP_pressure;BME280_temperature;BME280_humidity;BME280_pressure;Samples;Min_cycle;Max_cycle;Signal;HPM_P1;HPM_P2
2023/10/01 00:01:03;;;;;;;;;;;;;;;;;;5088976;28;852;-66
2023/10/01 00:03:28;;;;;;;;;;;;;;;;;;5089794;28;1381;-66
2023/10/01 00:05:53;;;;;;;;;;;;;;;;;;5091724;28;923;-66
2023/10/01 00:08:19;;;;;;;;;;;;;;;;;;5089782;28;1890;-66
2023/10/01 00:10:45;;;;;;;;;;;;;;;;;;5089836;28;1242;-65
2023/10/01 00:13:11;;;;;;;;;;;;;;;;;;5090410;28;930;-67
2023/10/01 00:15:37;;;;;;;;;;;;;;;;;;5092608;28;876;-66
2023/10/01 00:18:05;;;;;;;;;;;;;;;;;;5092077;28;1068;-66
2023/10/01 00:20:33;;;;;;;;;;;;;;;;;;5091916;28;903;-66
2023/10/01 00:23:02;;;;;;;;;;;;;;;;;;5092206;28;903;-66
2023/10/01 00:25:32;;;;;;;;;;;;;;;;;;5091962;28;852;-66
2023/10/01 00:27:58;;;;;;;;;;;;;;;;;;5091611;28;1902;-66
2023/10/01 00:30:24;;;;;;;;;;;;;;;;;;5091095;28;914;-66
2023/10/01 00:32:49;;;;;;;;;;;;;;;;;;5091840;28;990;-66
2023/10/01 00:35:15;;;;;;;;;;;;;;;;;;5091191;28;896;-66
2023/10/01 00:37:40;;;;;;;;;;;;;;;;;;5090129;28;1240;-66
2023/10/01 00:40:08;;;;;;;;;;;;;;;;;;5091188;28;808;-66
2023/10/01 00:42:34;;;;;;;;;;;;;;;;;;5090934;28;907;-66
2023/10/01 00:44:59;;;;;;;;;;;;;;;;;;5091220;28;805;-66
2023/10/01 00:47:26;;;;;;;;;;;;;;;;;;5089863;28;1917;-66
2023/10/01 00:49:52;;;;;;;;;;;;;;;;;;5091367;28;900;-66
2023/10/01 00:52:23;;;;;;;;;;;;;;;;;;5091184;28;998;-65
2023/10/01 00:54:50;;;;;;;;;;;;;;;;;;5095509;28;852;-65
2023/10/01 00:57:15;;;;;;;;;;;;;;;;;;5093355;28;1275;-65
2023/10/01 00:59:43;;;;;;;;;;;;;;;;;;5095989;28;990;-65
2023/10/01 01:02:09;;;;;;;;;;;;;;;;;;5095472;28;856;-65
2023/10/01 01:04:36;;;;;;;;;;;;;;;;;;5095110;28;966;-65
2023/10/01 01:07:14;;;;;;;;;;;;;;;;;;5095233;28;1971;-65
2023/10/01 01:09:40;;;;;;;;;;;;;;;;;;5094943;28;836;-65
2023/10/01 01:12:05;;;;;;;;;;;;;;;;;;5077028;28;1280;-66
2023/10/01 01:14:33;;;;;;;;;;;;;;;;;;5095015;28;903;-64
2023/10/01 01:16:59;;;;;;;;;;;;;;;;;;5093938;28;1521;-65
2023/10/01 01:19:24;;;;;;;;;;;;;;;;;;5095152;28;876;-65
2023/10/01 01:21:50;;;;;;;;;;;;;;;;;;5095260;28;820;-65
2023/10/01 01:24:16;;;;;;;;;;;;;;;;;;5094491;28;891;-65
2023/10/01 01:26:43;;;;;;;;;;;;;;;;;;5094530;28;1893;-64
2023/10/01 01:29:28;;;;;;;;;;;;;;;;;;5094003;28;880;-65
2023/10/01 01:32:06;;;;;;;;;;;;;;;;;;5095111;28;911;-65
2023/10/01 01:34:34;;;;;;;;;;;;;;;;;;5093219;28;860;-65
2023/10/01 01:36:59;;;;;;;;;;;;;;;;;;5092966;28;840;-66
2023/10/01 01:39:41;;;;;;;;;;;;;;;;;;5093930;28;1239;-65
2023/10/01 01:42:08;;;;;;;;;;;;;;;;;;5094366;28;924;-65
2023/10/01 01:44:33;;;;;;;;;;;;;;;;;;5092673;28;932;-65
2023/10/01 01:47:02;;;;;;;;;;;;;;;;;;5094165;28;1967;-65
2023/10/01 01:49:27;;;;;;;;;;;;;;;;;;5094039;28;869;-65
2023/10/01 01:52:05;;;;;;;;;;;;;;;;;;5093073;28;1215;-65
2023/10/01 01:54:31;;;;;;;;;;;;;;;;;;5093613;28;837;-65
2023/10/01 01:56:56;;;;;;;;;;;;;;;;;;5094096;28;957;-65
2023/10/01 01:59:24;;;;;;;;;;;;;;;;;;5093522;28;816;-65
2023/10/01 02:01:51;;;;;;;;;;;;;;;;;;5094067;28;928;-66
2023/10/01 02:04:16;;;;;;;;;;;;;;;;;;5093436;28;1078;-66
2023/10/01 02:06:42;;;;;;;;;;;;;;;;;;5093708;28;1887;-66
2023/10/01 02:09:12;;;;;;;;;;;;;;;;;;5094080;28;851;-66
2023/10/01 02:11:38;;;;;;;;;;;;;;;;;;5093193;28;1509;-66
2023/10/01 02:14:05;;;;;;;;;;;;;;;;;;5094568;28;1036;-65
2023/10/01 02:16:35;;;;;;;;;;;;;;;;;;5094178;28;876;-65
2023/10/01 02:19:21;;;;;;;;;;;;;;;;;;5093255;28;871;-66
2023/10/01 02:21:52;;;;;;;;;;;;;;;;;;5094342;28;813;-65
2023/10/01 02:24:37;;;;;;;;;;;;;;;;;;5093774;28;836;-65
2023/10/01 02:27:04;;;;;;;;;;;;;;;;;;5093035;28;1951;-65
2023/10/01 02:29:32;;;;;;;;;;;;;;;;;;5093070;28;868;-65
2023/10/01 02:31:57;;;;;;;;;;;;;;;;;;5093544;28;835;-65
2023/10/01 02:34:29;;;;;;;;;;;;;;;;;;5092866;28;919;-65
2023/10/01 02:36:55;;;;;;;;;;;;;;;;;;5093970;28;950;-65
2023/10/01 02:39:27;;;;;;;;;;;;;;;;;;5092743;28;1221;-65
2023/10/01 02:44:31;;;;;;;;;;;;;;;;;;5093325;28;800;-65
2023/10/01 02:47:01;;;;;;;;;;;;;;;;;;5093671;28;1953;-65
2023/10/01 02:49:26;;;;;;;;;;;;;;;;;;5093400;28;851;-65
2023/10/01 02:51:51;;;;;;;;;;;;;;;;;;5091977;28;978;-65
2023/10/01 02:54:18;;;;;;;;;;;;;;;;;;5092714;28;851;-65
2023/10/01 03:02:25;;;;;;;;;;;;;;;;;;5092894;28;619;-65
2023/10/01 03:04:50;;;;;;;;;;;;;;;;;;5091736;28;973;-66
2023/10/01 03:07:17;;;;;;;;;;;;;;;;;;5092461;28;1901;-67
2023/10/01 03:09:42;;;;;;;;;;;;;;;;;;5090684;28;1135;-67
2023/10/01 03:12:35;;;;;;;;;;;;;;;;;;5091821;28;844;-67
2023/10/01 03:15:00;;;;;;;;;;;;;;;;;;5091671;28;856;-64
2023/10/01 03:17:38;;;;;;;;;;;;;;;;;;5091916;28;805;-65
2023/10/01 03:21:07;;;;;;;;;;;;;;;;;;5092126;28;847;-65
2023/10/01 03:23:01;;;;;;;;;;;;;;;;;;5091899;28;1035;-65
2023/10/01 03:25:30;;;;;;;;;;;;;;;;;;5091595;28;847;-65
2023/10/01 03:27:58;;;;;;;;;;;;;;;;;;5092635;28;1901;-65
2023/10/01 03:30:24;;;;;;;;;;;;;;;;;;5092057;28;853;-65
2023/10/01 03:32:49;;;;;;;;;;;;;;;;;;5091153;28;837;-66
2023/10/01 03:35:14;;;;;;;;;;;;;;;;;;5092015;28;950;-66
2023/10/01 03:37:40;;;;;;;;;;;;;;;;;;5091519;28;1045;-66
2023/10/01 03:40:22;;;;;;;;;;;;;;;;;;5092382;28;848;-67
2023/10/01 03:42:53;;;;;;;;;;;;;;;;;;5092080;28;841;-66
2023/10/01 03:45:37;;;;;;;;;;;;;;;;;;5090432;28;888;-66
2023/10/01 03:48:06;;;;;;;;;;;;;;;;;;5092851;28;1906;-66
2023/10/01 03:50:31;;;;;;;;;;;;;;;;;;5092388;28;929;-66
2023/10/01 03:52:59;;;;;;;;;;;;;;;;;;5091703;28;916;-66
2023/10/01 03:55:31;;;;;;;;;;;;;;;;;;5092022;28;916;-66
2023/10/01 03:58:06;;;;;;;;;;;;;;;;;;5093174;28;901;-66
2023/10/01 04:00:41;;;;;;;;;;;;;;;;;;5092111;28;843;-66
2023/10/01 04:03:13;;;;;;;;;;;;;;;;;;5093077;28;906;-66
2023/10/01 04:05:44;;;;;;;;;;;;;;;;;;5092823;28;986;-66
2023/10/01 04:08:11;;;;;;;;;;;;;;;;;;5091764;28;1951;-66
2023/10/01 04:10:38;;;;;;;;;;;;;;;;;;5092934;28;820;-66
2023/10/01 04:13:15;;;;;;;;;;;;;;;;;;5092580;28;870;-66
2023/10/01 04:15:41;;;;;;;;;;;;;;;;;;5089164;28;1223;-66
2023/10/01 04:18:28;;;;;;;;;;;;;;;;;;5088731;28;1218;-66
2023/10/01 04:23:29;;;;;;;;;;;;;;;;;;5103694;28;1158;-66
2023/10/01 04:26:04;;;;;;;;;;;;;;;;;;5104489;28;1111;-66
2023/10/01 04:28:31;;;;;;;;;;;;;;;;;;5090183;28;1897;-66
2023/10/01 04:30:56;;;;;;;;;;;;;;;;;;5091564;28;885;-66
2023/10/01 04:33:23;;;;;;;;;;;;;;;;;;5089529;28;845;-66
2023/10/01 04:35:55;;;;;;;;;;;;;;;;;;5091409;28;896;-66
2023/10/01 04:38:21;;;;;;;;;;;;;;;;;;5091043;28;1151;-66
2023/10/01 04:40:48;;;;;;;;;;;;;;;;;;5091644;28;809;-66
2023/10/01 04:43:16;;;;;;;;;;;;;;;;;;5090980;28;891;-66
2023/10/01 04:45:41;;;;;;;;;;;;;;;;;;5090911;28;833;-66
2023/10/01 04:48:15;;;;;;;;;;;;;;;;;;5091058;28;1941;-66
2023/10/01 04:50:42;;;;;;;;;;;;;;;;;;5090169;28;912;-66
2023/10/01 04:53:07;;;;;;;;;;;;;;;;;;5090953;28;875;-66
2023/10/01 04:55:41;;;;;;;;;;;;;;;;;;5090061;28;829;-66
2023/10/01 04:58:06;;;;;;;;;;;;;;;;;;5091003;28;1165;-66
2023/10/01 05:00:33;;;;;;;;;;;;;;;;;;5090479;28;923;-66
2023/10/01 05:02:59;;;;;;;;;;;;;;;;;;5091062;28;895;-66
2023/10/01 05:05:27;;;;;;;;;;;;;;;;;;5090436;28;863;-66
2023/10/01 05:07:58;;;;;;;;;;;;;;;;;;5091125;28;1948;-66
2023/10/01 05:10:26;;;;;;;;;;;;;;;;;;5088880;28;1117;-65
2023/10/01 05:12:58;;;;;;;;;;;;;;;;;;5091290;28;879;-65
2023/10/01 05:15:31;;;;;;;;;;;;;;;;;;5090518;28;864;-65
2023/10/01 05:17:56;;;;;;;;;;;;;;;;;;5089735;28;884;-65
2023/10/01 05:20:25;;;;;;;;;;;;;;;;;;5090007;28;841;-65
2023/10/01 05:22:51;;;;;;;;;;;;;;;;;;5090991;28;903;-65
2023/10/01 05:25:18;;;;;;;;;;;;;;;;;;5089439;28;828;-65
2023/10/01 05:27:44;;;;;;;;;;;;;;;;;;5090628;28;1894;-65
2023/10/01 05:30:32;;;;;;;;;;;;;;;;;;5090579;28;837;-66
2023/10/01 05:32:54;;;;;;;;;;;;;;;;;;5090816;28;1502;-65
2023/10/01 05:35:22;;;;;;;;;;;;;;;;;;5091019;28;920;-65
2023/10/01 05:37:49;;;;;;;;;;;;;;;;;;5090603;28;1093;-65
2023/10/01 05:40:15;;;;;;;;;;;;;;;;;;5094202;28;852;-65
2023/10/01 05:42:41;;;;;;;;;;;;;;;;;;5094536;28;1041;-65
2023/10/01 05:45:14;;;;;;;;;;;;;;;;;;5095646;28;832;-65
2023/10/01 05:47:50;;;;;;;;;;;;;;;;;;5093681;28;1910;-65
2023/10/01 05:50:18;;;;;;;;;;;;;;;;;;5095623;28;856;-65
2023/10/01 05:52:45;;;;;;;;;;;;;;;;;;5093595;28;1380;-65
2023/10/01 05:55:19;;;;;;;;;;;;;;;;;;5095624;28;816;-66
2023/10/01 05:57:44;;;;;;;;;;;;;;;;;;5093617;28;1604;-66
2023/10/01 06:00:17;;;;;;;;;;;;;;;;;;5095517;28;994;-66
2023/10/01 06:03:00;;;;;;;;;;;;;;;;;;5094444;28;916;-65
2023/10/01 06:05:32;;;;;;;;;;;;;;;;;;5094608;28;1050;-65
2023/10/01 06:07:58;;;;;;;;;;;;;;;;;;5094725;28;1960;-65
2023/10/01 06:10:35;;;;;;;;;;;;;;;;;;5092199;28;1155;-65
2023/10/01 06:13:06;;;;;;;;;;;;;;;;;;5094201;28;836;-65
2023/10/01 06:15:33;;;;;;;;;;;;;;;;;;5092911;28;920;-66
2023/10/01 06:18:00;;;;;;;;;;;;;;;;;;5101037;28;1183;-65
2023/10/01 06:20:26;;;;;;;;;;;;;;;;;;5107864;28;1231;-65
2023/10/01 06:22:56;;;;;;;;;;;;;;;;;;5082631;28;1242;-64
2023/10/01 06:25:37;;;;;;;;;;;;;;;;;;5105349;27;1166;-64
2023/10/01 06:28:19;;;;;;;;;;;;;;;;;;5089150;28;1905;-64
2023/10/01 06:30:45;;;;;;;;;;;;;;;;;;5113157;28;916;-64
2023/10/01 06:33:24;;;;;;;;;;;;;;;;;;5113857;28;876;-64
2023/10/01 06:38:41;;;;;;;;;;;;;;;;;;5112314;28;1108;-64
2023/10/01 06:41:13;;;;;;;;;;;;;;;;;;5111854;28;1364;-64
2023/10/01 06:43:48;;;;;;;;;;;;;;;;;;5111960;28;851;-64
2023/10/01 06:46:13;;;;;;;;;;;;;;;;;;5113146;28;804;-64
2023/10/01 06:48:39;;;;;;;;;;;;;;;;;;5112359;28;1906;-63
2023/10/01 06:51:05;;;;;;;;;;;;;;;;;;5111879;28;860;-65
2023/10/01 06:54:18;;;;;;;;;;;;;;;;;;5111580;28;1336;-64
2023/10/01 06:56:19;;;;;;;;;;;;;;;;;;5097341;28;1335;-64
2023/10/01 06:59:27;;;;;;;;;;;;;;;;;;5112366;28;828;-64
2023/10/01 07:01:46;;;;;;;;;;;;;;;;;;5104903;28;1190;-64
2023/10/01 07:04:13;;;;;;;;;;;;;;;;;;5101105;28;1135;-65
2023/10/01 07:06:39;;;;;;;;;;;;;;;;;;5091826;28;1890;-64
2023/10/01 07:09:24;;;;;;;;;;;;;;;;;;5092778;28;900;-64
2023/10/01 07:11:50;;;;;;;;;;;;;;;;;;5091590;28;888;-64
2023/10/01 07:14:18;;;;;;;;;;;;;;;;;;5092227;28;912;-65
2023/10/01 07:16:44;;;;;;;;;;;;;;;;;;5092207;28;828;-64
2023/10/01 07:19:11;;;;;;;;;;;;;;;;;;5091524;28;909;-65
2023/10/01 07:21:37;;;;;;;;;;;;;;;;;;5091980;28;783;-64
2023/10/01 07:24:04;;;;;;;;;;;;;;;;;;5092291;28;1771;-65
2023/10/01 07:26:30;;;;;;;;;;;;;;;;;;5091854;28;1901;-64
2023/10/01 07:28:56;;;;;;;;;;;;;;;;;;5093018;28;936;-65
2023/10/01 07:31:24;;;;;;;;;;;;;;;;;;5093109;28;1636;-65
2023/10/01 07:33:50;;;;;;;;;;;;;;;;;;5092043;28;837;-65
2023/10/01 07:36:17;;;;;;;;;;;;;;;;;;5091708;28;998;-65
2023/10/01 07:38:49;;;;;;;;;;;;;;;;;;5090491;28;1494;-65
2023/10/01 07:41:16;;;;;;;;;;;;;;;;;;5092596;28;1162;-65
2023/10/01 07:43:42;;;;;;;;;;;;;;;;;;5092069;28;859;-65
2023/10/01 07:46:08;;;;;;;;;;;;;;;;;;5092396;28;863;-65
2023/10/01 07:48:35;;;;;;;;;;;;;;;;;;5073736;28;1931;-65
2023/10/01 07:51:03;;;;;;;;;;;;;;;;;;5092633;28;849;-65
2023/10/01 07:53:32;;;;;;;;;;;;;;;;;;5091937;28;901;-65
2023/10/01 07:56:07;;;;;;;;;;;;;;;;;;5091975;28;944;-66
2023/10/01 07:58:47;;;;;;;;;;;;;;;;;;5091108;28;1163;-65
2023/10/01 08:07:03;;;;;;;;;;;;;;;;;;5091213;28;1887;-65
2023/10/01 08:09:31;;;;;;;;;;;;;;;;;;5090907;28;908;-65
2023/10/01 08:12:05;;;;;;;;;;;;;;;;;;5091174;28;875;-65
2023/10/01 08:14:33;;;;;;;;;;;;;;;;;;5091396;28;975;-65
2023/10/01 08:17:00;;;;;;;;;;;;;;;;;;5092251;28;921;-65
2023/10/01 08:19:41;;;;;;;;;;;;;;;;;;5092316;28;891;-65
2023/10/01 08:22:13;;;;;;;;;;;;;;;;;;5091645;28;868;-65
2023/10/01 08:24:39;;;;;;;;;;;;;;;;;;5090707;28;891;-65
2023/10/01 08:27:04;;;;;;;;;;;;;;;;;;5091549;28;1943;-65
2023/10/01 08:29:59;;;;;;;;;;;;;;;;;;5091396;28;868;-65
2023/10/01 08:32:22;;;;;;;;;;;;;;;;;;5091061;28;1045;-65
2023/10/01 08:37:31;;;;;;;;;;;;;;;;;;5090864;28;1052;-65
2023/10/01 08:39:56;;;;;;;;;;;;;;;;;;5092422;28;927;-65
2023/10/01 08:42:28;;;;;;;;;;;;;;;;;;5091042;28;931;-65
2023/10/01 08:45:08;;;;;;;;;;;;;;;;;;5090730;28;846;-64
2023/10/01 08:52:55;;;;;;;;;;;;;;;;;;5090528;28;658;-64
2023/10/01 08:55:24;;;;;;;;;;;;;;;;;;5090754;28;857;-64
2023/10/01 08:57:52;;;;;;;;;;;;;;;;;;5090257;28;781;-64
2023/10/01 09:00:20;;;;;;;;;;;;;;;;;;5089750;28;845;-64
2023/10/01 09:02:50;;;;;;;;;;;;;;;;;;5090252;28;853;-64
2023/10/01 09:05:23;;;;;;;;;;;;;;;;;;5091344;28;1031;-64
2023/10/01 09:07:50;;;;;;;;;;;;;;;;;;5090797;28;1902;-64
2023/10/01 09:10:18;;;;;;;;;;;;;;;;;;5091605;28;792;-64
2023/10/01 09:12:46;;;;;;;;;;;;;;;;;;5090787;28;963;-64
2023/10/01 09:15:27;;;;;;;;;;;;;;;;;;5094802;28;899;-64
2023/10/01 09:17:58;;;;;;;;;;;;;;;;;;5094423;28;909;-64
2023/10/01 09:20:42;;;;;;;;;;;;;;;;;;5095429;28;824;-64
2023/10/01 09:23:07;;;;;;;;;;;;;;;;;;5095468;28;926;-64
2023/10/01 09:25:39;;;;;;;;;;;;;;;;;;5094830;28;904;-64
2023/10/01 09:28:19;;;;;;;;;;;;;;;;;;5094586;28;2010;-64
2023/10/01 09:31:02;;;;;;;;;;;;;;;;;;5093818;28;889;-64
2023/10/01 09:33:29;;;;;;;;;;;;;;;;;;5095149;28;844;-64
2023/10/01 09:36:01;;;;;;;;;;;;;;;;;;5092834;28;713;-64
2023/10/01 09:38:29;;;;;;;;;;;;;;;;;;5094296;28;1195;-66
2023/10/01 09:40:56;;;;;;;;;;;;;;;;;;5093877;28;922;-65
2023/10/01 09:43:24;;;;;;;;;;;;;;;;;;5094239;28;789;-65
2023/10/01 09:45:51;;;;;;;;;;;;;;;;;;5092257;28;883;-65
2023/10/01 09:48:29;;;;;;;;;;;;;;;;;;5092601;28;1981;-64
2023/10/01 09:51:03;;;;;;;;;;;;;;;;;;5093995;28;875;-65
2023/10/01 09:53:31;;;;;;;;;;;;;;;;;;5094041;28;892;-65
2023/10/01 09:55:59;;;;;;;;;;;;;;;;;;5093399;28;996;-65
2023/10/01 09:58:24;;;;;;;;;;;;;;;;;;5094493;28;828;-65
2023/10/01 10:01:01;;;;;;;;;;;;;;;;;;5093443;28;871;-66
2023/10/01 10:03:38;;;;;;;;;;;;;;;;;;5094272;28;902;-65
2023/10/01 10:06:08;;;;;;;;;;;;;;;;;;5093623;28;1078;-65
2023/10/01 10:08:34;;;;;;;;;;;;;;;;;;5093796;28;1972;-66
2023/10/01 10:11:02;;;;;;;;;;;;;;;;;;5093009;28;849;-65
2023/10/01 10:13:37;;;;;;;;;;;;;;;;;;5093486;28;899;-65
2023/10/01 10:19:04;;;;;;;;;;;;;;;;;;5092903;28;681;-65
2023/10/01 10:22:01;;;;;;;;;;;;;;;;;;5092702;28;880;-66
2023/10/01 10:24:30;;;;;;;;;;;;;;;;;;5093683;28;1103;-66
2023/10/01 10:26:57;;;;;;;;;;;;;;;;;;5092799;28;1977;-66
2023/10/01 10:29:41;;;;;;;;;;;;;;;;;;5094450;28;895;-65
2023/10/01 10:32:15;;;;;;;;;;;;;;;;;;5094117;28;833;-65
2023/10/01 10:35:03;;;;;;;;;;;;;;;;;;5092906;28;860;-65
2023/10/01 10:37:34;;;;;;;;;;;;;;;;;;5093444;28;1037;-65
2023/10/01 10:40:04;;;;;;;;;;;;;;;;;;5093601;28;884;-66
2023/10/01 10:42:30;;;;;;;;;;;;;;;;;;5093229;28;840;-66
2023/10/01 10:45:19;;;;;;;;;;;;;;;;;;5092809;28;847;-65
2023/10/01 10:48:04;;;;;;;;;;;;;;;;;;5092570;28;1964;-66
2023/10/01 10:50:48;;;;;;;;;;;;;;;;;;5093601;28;856;-65
2023/10/01 10:53:15;;;;;;;;;;;;;;;;;;5093082;28;909;-65
2023/10/01 10:55:50;;;;;;;;;;;;;;;;;;5092596;28;908;-65
2023/10/01 10:58:15;;;;;;;;;;;;;;;;;;5093330;28;864;-65
2023/10/01 11:00:40;;;;;;;;;;;;;;;;;;5092826;28;1027;-65
2023/10/01 11:03:10;;;;;;;;;;;;;;;;;;5091630;28;1891;-65
2023/10/01 11:05:49;;;;;;;;;;;;;;;;;;5092810;28;913;-65
2023/10/01 11:08:25;;;;;;;;;;;;;;;;;;5092749;28;1893;-65
2023/10/01 11:10:51;;;;;;;;;;;;;;;;;;5092425;28;909;-65
2023/10/01 11:13:27;;;;;;;;;;;;;;;;;;5092459;28;879;-65
2023/10/01 11:15:53;;;;;;;;;;;;;;;;;;5090376;28;1756;-65
2023/10/01 11:18:25;;;;;;;;;;;;;;;;;;5092688;28;818;-65
2023/10/01 11:21:01;;;;;;;;;;;;;;;;;;5091579;28;840;-64
2023/10/01 11:23:26;;;;;;;;;;;;;;;;;;5092458;28;837;-65
2023/10/01 11:25:52;;;;;;;;;;;;;;;;;;5089374;28;1273;-65
2023/10/01 11:28:17;;;;;;;;;;;;;;;;;;5088049;28;1890;-65
2023/10/01 11:30:42;;;;;;;;;;;;;;;;;;5091992;28;821;-65
2023/10/01 11:33:29;;;;;;;;;;;;;;;;;;5090522;28;879;-65
2023/10/01 11:35:59;;;;;;;;;;;;;;;;;;5091248;28;2055;-65
2023/10/01 11:38:28;;;;;;;;;;;;;;;;;;5091805;28;1071;-65
2023/10/01 11:41:07;;;;;;;;;;;;;;;;;;5090571;28;884;-65
2023/10/01 11:43:58;;;;;;;;;;;;;;;;;;5091822;28;1392;-65
2023/10/01 11:46:34;;;;;;;;;;;;;;;;;;5092242;28;793;-65
2023/10/01 11:49:06;;;;;;;;;;;;;;;;;;5091444;28;1906;-65
2023/10/01 11:51:43;;;;;;;;;;;;;;;;;;5092093;28;788;-65
2023/10/01 11:54:09;;;;;;;;;;;;;;;;;;5090565;28;912;-65
2023/10/01 11:56:40;;;;;;;;;;;;;;;;;;5091870;28;820;-65
2023/10/01 11:59:08;;;;;;;;;;;;;;;;;;5090418;28;899;-65
2023/10/01 12:01:39;;;;;;;;;;;;;;;;;;5092041;28;840;-65
2023/10/01 12:04:07;;;;;;;;;;;;;;;;;;5091766;28;915;-64
2023/10/01 12:06:38;;;;;;;;;;;;;;;;;;5091476;28;1058;-64
2023/10/01 12:09:04;;;;;;;;;;;;;;;;;;5091637;28;844;-64
2023/10/01 12:11:31;;;;;;;;;;;;;;;;;;5092958;28;817;-64
2023/10/01 12:14:06;;;;;;;;;;;;;;;;;;5092081;28;844;-65
2023/10/01 12:16:32;;;;;;;;;;;;;;;;;;5092452;28;840;-64
2023/10/01 12:19:17;;;;;;;;;;;;;;;;;;5091027;28;1334;-64
2023/10/01 12:21:43;;;;;;;;;;;;;;;;;;5091992;28;984;-64
2023/10/01 12:24:12;;;;;;;;;;;;;;;;;;5092865;28;832;-64
2023/10/01 12:26:38;;;;;;;;;;;;;;;;;;5092119;28;1902;-64
2023/10/01 12:29:13;;;;;;;;;;;;;;;;;;5090801;28;1293;-64
2023/10/01 12:31:40;;;;;;;;;;;;;;;;;;5090673;28;1154;-65
2023/10/01 12:34:06;;;;;;;;;;;;;;;;;;5089563;28;1223;-65
2023/10/01 12:36:32;;;;;;;;;;;;;;;;;;5089991;28;1274;-64
2023/10/01 12:41:47;;;;;;;;;;;;;;;;;;5092013;28;840;-64
2023/10/01 12:44:31;;;;;;;;;;;;;;;;;;5091196;28;900;-64
2023/10/01 12:47:00;;;;;;;;;;;;;;;;;;5088760;28;1914;-65
2023/10/01 12:49:31;;;;;;;;;;;;;;;;;;5104788;28;1159;-65
2023/10/01 12:51:57;;;;;;;;;;;;;;;;;;5113554;28;1139;-65
2023/10/01 12:54:25;;;;;;;;;;;;;;;;;;5108925;28;1151;-65
2023/10/01 12:57:09;;;;;;;;;;;;;;;;;;5094781;28;1206;-65
2023/10/01 13:00:21;;;;;;;;;;;;;;;;;;5095203;28;836;-65
2023/10/01 13:02:40;;;;;;;;;;;;;;;;;;5095003;28;1411;-65
2023/10/01 13:05:21;;;;;;;;;;;;;;;;;;5094924;28;907;-65
2023/10/01 13:07:47;;;;;;;;;;;;;;;;;;5094921;28;1898;-65
2023/10/01 13:10:13;;;;;;;;;;;;;;;;;;5095338;28;836;-64
2023/10/01 13:12:39;;;;;;;;;;;;;;;;;;5094680;28;951;-64
2023/10/01 13:15:16;;;;;;;;;;;;;;;;;;5094164;28;872;-64
2023/10/01 13:17:45;;;;;;;;;;;;;;;;;;5094709;28;880;-65
2023/10/01 13:20:22;;;;;;;;;;;;;;;;;;5095004;28;852;-65
2023/10/01 13:23:06;;;;;;;;;;;;;;;;;;5094209;28;1009;-65
2023/10/01 13:25:33;;;;;;;;;;;;;;;;;;5094894;28;931;-64
2023/10/01 13:28:02;;;;;;;;;;;;;;;;;;5094438;28;1894;-65
2023/10/01 13:30:30;;;;;;;;;;;;;;;;;;5094752;28;863;-65
2023/10/01 13:33:14;;;;;;;;;;;;;;;;;;5094392;28;931;-65
2023/10/01 13:36:35;;;;;;;;;;;;;;;;;;5094645;28;835;-64
2023/10/01 14:10:53;;;;;;;;;;;;;;;;;;5095287;28;682;-65
2023/10/01 14:13:29;;;;;;;;;;;;;;;;;;5095615;28;880;-63
2023/10/01 14:16:11;;;;;;;;;;;;;;;;;;5094786;28;867;-65
2023/10/01 14:18:37;;;;;;;;;;;;;;;;;;5095334;28;876;-63
2023/10/01 14:21:12;;;;;;;;;;;;;;;;;;5094491;28;805;-65
2023/10/01 14:23:42;;;;;;;;;;;;;;;;;;5095046;28;935;-65
2023/10/01 14:26:13;;;;;;;;;;;;;;;;;;5094381;28;828;-64
2023/10/01 14:28:38;;;;;;;;;;;;;;;;;;5093919;28;1901;-64
2023/10/01 14:31:05;;;;;;;;;;;;;;;;;;5090784;28;1207;-65
2023/10/01 14:33:32;;;;;;;;;;;;;;;;;;5091574;28;911;-65
2023/10/01 14:36:02;;;;;;;;;;;;;;;;;;5093229;28;816;-64
2023/10/01 14:38:43;;;;;;;;;;;;;;;;;;5093556;28;1191;-63
2023/10/01 14:41:18;;;;;;;;;;;;;;;;;;5093275;28;1559;-64
2023/10/01 14:43:54;;;;;;;;;;;;;;;;;;5092908;28;987;-65
2023/10/01 14:46:19;;;;;;;;;;;;;;;;;;5092327;28;1123;-65
2023/10/01 14:48:48;;;;;;;;;;;;;;;;;;5097575;28;1953;-65
2023/10/01 14:51:14;;;;;;;;;;;;;;;;;;5097958;28;1173;-64
2023/10/01 14:53:39;;;;;;;;;;;;;;;;;;5092338;28;1214;-64
2023/10/01 14:56:05;;;;;;;;;;;;;;;;;;5092987;28;817;-65
2023/10/01 14:58:33;;;;;;;;;;;;;;;;;;5093471;28;820;-65
2023/10/01 15:00:59;;;;;;;;;;;;;;;;;;5091995;28;904;-65
2023/10/01 15:03:34;;;;;;;;;;;;;;;;;;5093269;28;868;-65
2023/10/01 15:06:03;;;;;;;;;;;;;;;;;;5092741;28;1111;-64
2023/10/01 15:08:29;;;;;;;;;;;;;;;;;;5093051;28;1894;-64
2023/10/01 15:10:57;;;;;;;;;;;;;;;;;;5092379;28;931;-64
2023/10/01 15:13:35;;;;;;;;;;;;;;;;;;5092742;28;957;-64
2023/10/01 15:16:03;;;;;;;;;;;;;;;;;;5099249;28;1206;-65
2023/10/01 15:18:32;;;;;;;;;;;;;;;;;;5096045;28;1166;-65
2023/10/01 15:20:59;;;;;;;;;;;;;;;;;;5091734;28;1199;-65
2023/10/01 15:23:24;;;;;;;;;;;;;;;;;;5093148;28;872;-64
2023/10/01 15:25:49;;;;;;;;;;;;;;;;;;5092691;28;1230;-65
2023/10/01 15:28:18;;;;;;;;;;;;;;;;;;5092771;28;1902;-65
2023/10/01 15:30:45;;;;;;;;;;;;;;;;;;5093296;28;852;-65
2023/10/01 15:33:17;;;;;;;;;;;;;;;;;;5093087;28;918;-64
2023/10/01 15:35:48;;;;;;;;;;;;;;;;;;5092977;28;903;-65
2023/10/01 15:38:26;;;;;;;;;;;;;;;;;;5092770;28;1278;-65
2023/10/01 15:40:52;;;;;;;;;;;;;;;;;;5091691;28;998;-65
2023/10/01 15:43:20;;;;;;;;;;;;;;;;;;5093329;28;855;-65
2023/10/01 15:45:46;;;;;;;;;;;;;;;;;;5099231;28;1316;-64
2023/10/01 15:48:15;;;;;;;;;;;;;;;;;;5089007;28;1909;-65
2023/10/01 15:50:41;;;;;;;;;;;;;;;;;;5100026;28;1225;-64
2023/10/01 15:53:28;;;;;;;;;;;;;;;;;;5113459;28;835;-64
2023/10/01 15:56:00;;;;;;;;;;;;;;;;;;5112782;28;1191;-64
2023/10/01 15:58:25;;;;;;;;;;;;;;;;;;5111965;28;884;-65
2023/10/01 16:00:59;;;;;;;;;;;;;;;;;;5112828;28;899;-65
2023/10/01 16:03:30;;;;;;;;;;;;;;;;;;5113530;28;883;-65
2023/10/01 16:05:56;;;;;;;;;;;;;;;;;;5111454;28;1053;-65
2023/10/01 16:08:22;;;;;;;;;;;;;;;;;;5113712;28;1894;-65
2023/10/01 16:10:52;;;;;;;;;;;;;;;;;;5113210;28;895;-64
2023/10/01 16:13:27;;;;;;;;;;;;;;;;;;5113651;28;883;-65
2023/10/01 16:16:00;;;;;;;;;;;;;;;;;;5113372;28;907;-64
2023/10/01 16:18:28;;;;;;;;;;;;;;;;;;5112874;28;820;-65
2023/10/01 16:20:53;;;;;;;;;;;;;;;;;;5112451;28;883;-65
2023/10/01 16:23:19;;;;;;;;;;;;;;;;;;5112447;28;864;-65
2023/10/01 16:25:45;;;;;;;;;;;;;;;;;;5112491;28;808;-65
2023/10/01 16:28:19;;;;;;;;;;;;;;;;;;5112002;28;1959;-65
2023/10/01 16:30:49;;;;;;;;;;;;;;;;;;5111976;28;853;-65
2023/10/01 16:33:17;;;;;;;;;;;;;;;;;;5112297;28;844;-65
2023/10/01 16:35:47;;;;;;;;;;;;;;;;;;5111856;28;825;-64
2023/10/01 16:38:13;;;;;;;;;;;;;;;;;;5112330;28;1171;-65
2023/10/01 16:40:38;;;;;;;;;;;;;;;;;;5111871;28;809;-65
2023/10/01 16:43:04;;;;;;;;;;;;;;;;;;5111598;28;844;-65
2023/10/01 16:45:30;;;;;;;;;;;;;;;;;;5111933;28;840;-65
2023/10/01 16:47:56;;;;;;;;;;;;;;;;;;5111695;28;1972;-66
2023/10/01 16:50:33;;;;;;;;;;;;;;;;;;5112402;28;742;-65
2023/10/01 16:53:00;;;;;;;;;;;;;;;;;;5110183;28;872;-65
2023/10/01 16:55:25;;;;;;;;;;;;;;;;;;5110645;28;884;-65
2023/10/01 16:57:55;;;;;;;;;;;;;;;;;;5110469;28;1738;-66
2023/10/01 17:00:21;;;;;;;;;;;;;;;;;;5111846;28;978;-65
2023/10/01 17:02:47;;;;;;;;;;;;;;;;;;5111497;27;894;-65
2023/10/01 17:05:18;;;;;;;;;;;;;;;;;;5111662;28;920;-66
2023/10/01 17:07:44;;;;;;;;;;;;;;;;;;5110729;28;1951;-65
2023/10/01 17:10:11;;;;;;;;;;;;;;;;;;5109644;28;922;-66
2023/10/01 17:12:36;;;;;;;;;;;;;;;;;;5111210;28;899;-66
2023/10/01 17:15:29;;;;;;;;;;;;;;;;;;5111648;28;840;-66
2023/10/01 17:17:54;;;;;;;;;;;;;;;;;;5111699;28;1816;-65
2023/10/01 17:20:29;;;;;;;;;;;;;;;;;;5112549;28;859;-65
2023/10/01 17:22:54;;;;;;;;;;;;;;;;;;5112222;28;906;-65
2023/10/01 17:25:26;;;;;;;;;;;;;;;;;;5112389;28;854;-65
2023/10/01 17:27:53;;;;;;;;;;;;;;;;;;5112178;28;1965;-65
2023/10/01 17:30:18;;;;;;;;;;;;;;;;;;5112136;28;860;-65
2023/10/01 17:33:00;;;;;;;;;;;;;;;;;;5112379;28;935;-65
2023/10/01 17:35:26;;;;;;;;;;;;;;;;;;5115035;28;923;-65
2023/10/01 17:37:51;;;;;;;;;;;;;;;;;;5115301;28;1330;-65
2023/10/01 17:40:22;;;;;;;;;;;;;;;;;;5097898;28;1246;-65
2023/10/01 17:42:51;;;;;;;;;;;;;;;;;;5114463;28;1481;-65
2023/10/01 17:45:17;;;;;;;;;;;;;;;;;;5115853;28;884;-65
2023/10/01 17:47:44;;;;;;;;;;;;;;;;;;5115535;28;1902;-65
2023/10/01 17:50:15;;;;;;;;;;;;;;;;;;5115244;28;871;-65
2023/10/01 17:52:42;;;;;;;;;;;;;;;;;;5115116;28;1271;-66
2023/10/01 17:55:16;;;;;;;;;;;;;;;;;;5115207;28;847;-65
2023/10/01 17:57:41;;;;;;;;;;;;;;;;;;5115016;28;935;-65
2023/10/01 18:00:10;;;;;;;;;;;;;;;;;;5115666;28;915;-65
2023/10/01 18:02:38;;;;;;;;;;;;;;;;;;5115797;28;864;-65
2023/10/01 18:05:17;;;;;;;;;;;;;;;;;;5115170;28;942;-65
2023/10/01 18:07:52;;;;;;;;;;;;;;;;;;5115052;28;1934;-65
2023/10/01 18:10:34;;;;;;;;;;;;;;;;;;5114229;28;1259;-65
2023/10/01 18:13:00;;;;;;;;;;;;;;;;;;5114872;28;877;-65
2023/10/01 18:15:26;;;;;;;;;;;;;;;;;;5115103;28;884;-65
2023/10/01 18:17:55;;;;;;;;;;;;;;;;;;5114505;28;935;-65
2023/10/01 18:20:21;;;;;;;;;;;;;;;;;;5114674;28;903;-65
2023/10/01 18:22:51;;;;;;;;;;;;;;;;;;5114307;28;927;-65
2023/10/01 18:25:17;;;;;;;;;;;;;;;;;;5114572;28;915;-65
2023/10/01 18:27:42;;;;;;;;;;;;;;;;;;5114056;28;1905;-65
2023/10/01 18:30:19;;;;;;;;;;;;;;;;;;5113016;28;825;-65
2023/10/01 18:32:46;;;;;;;;;;;;;;;;;;5114457;28;852;-65
2023/10/01 18:35:12;;;;;;;;;;;;;;;;;;5095642;28;1381;-65
2023/10/01 18:37:38;;;;;;;;;;;;;;;;;;5113614;28;1191;-65
2023/10/01 18:40:13;;;;;;;;;;;;;;;;;;5113899;28;1052;-65
2023/10/01 18:42:39;;;;;;;;;;;;;;;;;;5113756;28;890;-65